Time;durP1;ratioP1;P1;durP2;ratioP2;P2;SDS_P1;SDS_P2;PMS_P1;PMS_P2;Temp;Humidity;BMP_temperature;BMP_pressure;BME280_temperature;BME280_humidity;BME280_pressure;Samples;Min_cycle;Max_cycle;Signal;HPM_P1;HPM_P2
2023/12/11 00:00:33;;;;;;;0.00;0.00;;;;;;;9.72;93.81;98717.13;4911480;29;20108;-83
2023/12/11 00:02:59;;;;;;;0.00;0.00;;;;;;;9.67;93.07;98692.66;4903989;29;20483;-83
2023/12/11 00:05:27;;;;;;;0.10;0.10;;;;;;;9.91;91.08;98715.09;4903038;29;20027;-81
2023/12/11 00:07:57;;;;;;;0.00;0.00;;;;;;;9.95;90.83;98716.09;4928647;29;20028;-83
2023/12/11 00:10:23;;;;;;;0.00;0.00;;;;;;;9.99;90.29;98729.97;4923785;29;20082;-83
2023/12/11 00:12:49;;;;;;;0.00;0.00;;;;;;;10.02;90.21;98739.50;4930407;29;20056;-83
2023/12/11 00:15:14;;;;;;;0.00;0.00;;;;;;;9.86;91.08;98723.41;4951250;28;21238;-82
2023/12/11 00:17:40;;;;;;;0.00;0.00;;;;;;;9.70;90.51;98700.25;4916244;29;20127;-83
2023/12/11 00:20:09;;;;;;;0.00;0.00;;;;;;;9.78;89.30;98715.91;4915608;29;20458;-82
2023/12/11 00:22:34;;;;;;;0.00;0.00;;;;;;;9.72;89.61;98712.47;4916105;29;20079;-81
2023/12/11 00:24:59;;;;;;;0.00;0.00;;;;;;;9.70;89.02;98725.59;4924013;29;20036;-81
2023/12/11 00:27:25;;;;;;;0.00;0.00;;;;;;;9.76;88.35;98701.75;4881580;29;20043;-81
2023/12/11 00:29:55;;;;;;;0.00;0.00;;;;;;;9.78;89.16;98715.91;4877338;29;20063;-82
2023/12/11 00:32:23;;;;;;;0.00;0.00;;;;;;;9.65;88.55;98722.16;4879468;29;20183;-80
2023/12/11 00:34:48;;;;;;;0.00;0.00;;;;;;;9.74;89.15;98712.19;4883652;29;20035;-78
2023/12/11 00:37:14;;;;;;;0.00;0.00;;;;;;;9.91;89.02;98741.59;4891122;29;20370;-81
2023/12/11 00:39:39;;;;;;;0.00;0.00;;;;;;;9.79;88.49;98728.44;4893898;29;20505;-82
2023/12/11 00:42:08;;;;;;;0.00;0.00;;;;;;;9.76;88.23;98750.91;4898592;29;20115;-79
2023/12/11 00:44:36;;;;;;;0.00;0.00;;;;;;;9.81;88.19;98737.13;4917287;29;20035;-80
2023/12/11 00:47:04;;;;;;;0.00;0.00;;;;;;;9.88;88.32;98759.38;4883193;29;20040;-81
2023/12/11 00:49:29;;;;;;;0.00;0.00;;;;;;;9.87;87.82;98740.56;4895425;29;20062;-84
2023/12/11 00:51:57;;;;;;;0.00;0.00;;;;;;;9.89;86.75;98728.25;4881327;29;20047;-79
2023/12/11 00:54:26;;;;;;;0.00;0.00;;;;;;;9.73;86.52;98699.63;4904229;29;20035;-81
2023/12/11 00:57:12;;;;;;;0.00;0.00;;;;;;;9.83;85.64;98713.09;4902928;29;20499;-80
2023/12/11 00:59:40;;;;;;;0.00;0.00;;;;;;;9.88;86.38;98714.91;4879597;29;20091;-79
2023/12/11 01:02:08;;;;;;;0.00;0.00;;;;;;;9.69;86.02;98701.34;4904219;29;20027;-79
2023/12/11 01:04:33;;;;;;;0.00;0.00;;;;;;;9.88;86.88;98743.00;4902193;29;20027;-80
2023/12/11 01:06:59;;;;;;;0.00;0.00;;;;;;;9.86;86.77;98722.59;4897757;29;20431;-81
2023/12/11 01:09:34;;;;;;;;;;;;;;;;;;;;;
2023/12/11 01:12:00;;;;;;;0.00;0.00;;;;;;;9.96;86.34;98755.16;4910565;29;20036;-80
2023/12/11 01:14:25;;;;;;;0.00;0.00;;;;;;;9.80;86.79;98716.44;4879145;29;20127;-82
2023/12/11 01:16:51;;;;;;;0.00;0.00;;;;;;;9.80;86.89;98757.38;4878379;29;20470;-82
2023/12/11 01:19:16;;;;;;;0.00;0.00;;;;;;;9.63;88.03;98746.22;4901637;29;20440;-81
2023/12/11 01:21:45;;;;;;;0.00;0.00;;;;;;;9.51;88.83;98771.28;4878748;29;20028;-81
2023/12/11 01:24:11;;;;;;;0.00;0.00;;;;;;;9.54;89.81;98770.66;4915005;29;20032;-80
2023/12/11 01:26:37;;;;;;;0.00;0.00;;;;;;;9.56;90.27;98779.34;4903056;29;20039;-81
2023/12/11 01:29:03;;;;;;;0.00;0.00;;;;;;;9.68;90.03;98803.44;4920331;29;20111;-79
2023/12/11 01:31:28;;;;;;;0.00;0.00;;;;;;;9.72;88.79;98788.09;4894551;29;20062;-78
2023/12/11 01:33:54;;;;;;;0.00;0.00;;;;;;;9.73;89.07;98784.25;4896592;29;20125;-83
2023/12/11 01:36:19;;;;;;;0.00;0.00;;;;;;;9.72;88.92;98780.69;4881878;29;20113;-80
2023/12/11 01:38:47;;;;;;;0.00;0.00;;;;;;;9.72;88.83;98766.25;4899226;28;20034;-80
2023/12/11 01:41:12;;;;;;;0.00;0.00;;;;;;;9.63;88.82;98774.31;4881359;29;20136;-81
2023/12/11 01:43:50;;;;;;;0.00;0.00;;;;;;;9.60;88.85;98764.81;4904099;29;21029;-80
2023/12/11 01:46:18;;;;;;;0.00;0.00;;;;;;;9.63;89.52;98757.16;4910060;29;20395;-79
2023/12/11 01:48:44;;;;;;;0.00;0.00;;;;;;;9.71;89.13;98781.00;4895689;29;20360;-80
2023/12/11 01:51:11;;;;;;;0.00;0.00;;;;;;;9.74;88.50;98780.44;4919626;29;20087;-80
2023/12/11 01:53:37;;;;;;;0.00;0.00;;;;;;;9.64;89.29;98770.50;4878813;29;20036;-79
2023/12/11 01:56:02;;;;;;;0.00;0.00;;;;;;;9.74;89.36;98794.06;4886166;29;20089;-79
2023/12/11 01:58:29;;;;;;;0.00;0.00;;;;;;;9.83;89.27;98795.00;4907032;29;20031;-77
2023/12/11 02:00:55;;;;;;;0.00;0.00;;;;;;;9.95;88.91;98798.03;4885120;29;20032;-77
2023/12/11 02:03:22;;;;;;;0.00;0.00;;;;;;;9.99;87.80;98800.16;4925315;29;20164;-78
2023/12/11 02:05:49;;;;;;;0.00;0.00;;;;;;;9.96;88.06;98788.72;4875767;29;20035;-78
2023/12/11 02:08:21;;;;;;;0.00;0.00;;;;;;;9.88;88.33;98770.31;4908547;29;20154;-79
2023/12/11 02:10:46;;;;;;;0.00;0.00;;;;;;;10.05;87.54;98788.03;4908753;29;20027;-79
2023/12/11 02:13:15;;;;;;;0.00;0.00;;;;;;;9.93;87.68;98777.63;4904852;29;20035;-77
2023/12/11 02:15:40;;;;;;;0.00;0.00;;;;;;;10.11;88.06;98786.81;4923585;29;20031;-77
2023/12/11 02:18:07;;;;;;;0.00;0.00;;;;;;;10.10;87.49;98798.84;4924558;29;20038;-77
2023/12/11 02:20:43;;;;;;;0.00;0.00;;;;;;;9.94;87.53;98784.69;4905046;29;20028;-78
2023/12/11 02:23:18;;;;;;;0.00;0.00;;;;;;;10.15;88.19;98815.16;4902629;29;20039;-77
2023/12/11 02:25:48;;;;;;;0.00;0.00;;;;;;;10.06;88.34;98814.22;4920196;29;20111;-77
2023/12/11 02:28:13;;;;;;;0.00;0.00;;;;;;;10.12;88.19;98834.88;4904019;29;20115;-77
2023/12/11 02:30:49;;;;;;;0.00;0.00;;;;;;;10.06;88.39;98825.16;4890225;28;21290;-79
2023/12/11 02:33:14;;;;;;;0.00;0.00;;;;;;;9.94;88.84;98826.47;4923516;29;20031;-79
2023/12/11 02:35:43;;;;;;;0.00;0.00;;;;;;;9.87;89.28;98828.78;4897302;29;20390;-78
2023/12/11 02:38:09;;;;;;;0.00;0.00;;;;;;;9.75;89.39;98833.88;4913452;29;20394;-79
2023/12/11 02:40:34;;;;;;;0.00;0.00;;;;;;;9.69;89.72;98814.06;4916188;29;20031;-80
2023/12/11 02:43:00;;;;;;;0.00;0.00;;;;;;;9.89;89.19;98853.03;4887300;29;20025;-80
2023/12/11 02:45:25;;;;;;;0.00;0.00;;;;;;;9.82;89.00;98845.22;4897351;29;20032;-80
2023/12/11 02:47:50;;;;;;;0.00;0.00;;;;;;;9.76;89.56;98828.13;4876950;29;20098;-80
2023/12/11 02:50:16;;;;;;;0.00;0.00;;;;;;;9.58;89.89;98838.00;4919234;29;20038;-80
2023/12/11 02:52:41;;;;;;;0.00;0.00;;;;;;;9.43;91.25;98835.50;4865453;29;20036;-79
2023/12/11 02:55:07;;;;;;;0.00;0.00;;;;;;;9.34;92.00;98827.19;4893353;29;20043;-78
2023/12/11 02:57:38;;;;;;;0.00;0.00;;;;;;;9.24;92.01;98821.88;4902623;29;20079;-79
2023/12/11 03:00:25;;;;;;;0.00;0.00;;;;;;;9.42;92.59;98833.91;4910883;29;20035;-80
2023/12/11 03:02:58;;;;;;;0.00;0.00;;;;;;;9.32;91.42;98815.75;4901462;29;20051;-80
2023/12/11 03:05:26;;;;;;;0.00;0.00;;;;;;;9.36;92.24;98824.16;4916842;29;20023;-81
2023/12/11 03:07:53;;;;;;;0.00;0.00;;;;;;;9.22;92.47;98822.19;4910365;29;20051;-80
2023/12/11 03:10:21;;;;;;;0.00;0.00;;;;;;;9.31;93.60;98840.63;4919800;28;20055;-78
2023/12/11 03:12:47;;;;;;;0.00;0.00;;;;;;;9.33;93.63;98831.03;4917643;29;20153;-79
2023/12/11 03:15:12;;;;;;;0.00;0.00;;;;;;;9.50;93.04;98841.38;4906202;29;20396;-78
2023/12/11 03:17:38;;;;;;;0.00;0.00;;;;;;;9.61;93.06;98856.50;4877984;29;20042;-82
2023/12/11 03:20:09;;;;;;;0.00;0.00;;;;;;;9.64;92.82;98857.81;4899150;29;20503;-79
2023/12/11 03:22:34;;;;;;;0.00;0.00;;;;;;;9.64;93.56;98859.72;4913819;29;20386;-79
2023/12/11 03:25:00;;;;;;;0.00;0.00;;;;;;;9.54;93.38;98855.25;4880560;29;20555;-77
2023/12/11 03:27:25;;;;;;;0.00;0.00;;;;;;;9.24;93.94;98838.25;4922109;29;20028;-80
2023/12/11 03:29:51;;;;;;;0.10;0.10;;;;;;;9.46;95.48;98864.13;4885013;29;20044;-79
2023/12/11 03:32:16;;;;;;;0.00;0.00;;;;;;;9.60;94.70;98868.50;4902153;29;20115;-80
2023/12/11 03:34:44;;;;;;;0.00;0.00;;;;;;;9.49;94.60;98856.16;4878912;29;20055;-80
2023/12/11 03:37:10;;;;;;;0.00;0.00;;;;;;;9.53;94.78;98880.91;4900786;29;20039;-78
2023/12/11 03:39:36;;;;;;;0.00;0.00;;;;;;;9.56;94.69;98872.97;4868354;29;20024;-78
2023/12/11 03:42:05;;;;;;;0.00;0.00;;;;;;;9.48;95.11;98860.00;4895237;29;20546;-80
2023/12/11 03:44:30;;;;;;;0.00;0.00;;;;;;;9.46;95.07;98864.91;4917241;29;20074;-80
2023/12/11 03:46:58;;;;;;;0.00;0.00;;;;;;;9.48;95.68;98887.28;4911427;29;20445;-80
2023/12/11 03:49:24;;;;;;;0.00;0.00;;;;;;;9.60;95.20;98889.53;4891087;29;20043;-78
2023/12/11 03:51:49;;;;;;;0.00;0.00;;;;;;;9.51;94.35;98851.19;4887785;29;20035;-80
2023/12/11 03:54:15;;;;;;;0.00;0.00;;;;;;;9.74;93.93;98898.59;4872654;29;20463;-78
2023/12/11 03:56:43;;;;;;;0.00;0.00;;;;;;;9.68;94.05;98871.66;4877874;29;20393;-78
2023/12/11 03:59:11;;;;;;;0.00;0.00;;;;;;;9.71;94.07;98873.81;4884912;29;20036;-79
2023/12/11 04:01:37;;;;;;;0.00;0.00;;;;;;;9.84;93.45;98896.81;4889300;29;20043;-78
2023/12/11 04:04:03;;;;;;;0.00;0.00;;;;;;;9.72;93.08;98894.53;4904656;29;20040;-79
2023/12/11 04:06:29;;;;;;;0.00;0.00;;;;;;;9.47;93.77;98874.72;4888925;29;20123;-77
2023/12/11 04:08:54;;;;;;;0.00;0.00;;;;;;;9.58;93.49;98902.69;4890295;29;20522;-78
2023/12/11 04:11:22;;;;;;;0.00;0.00;;;;;;;9.47;93.77;98891.09;4877644;29;20080;-78
2023/12/11 04:13:48;;;;;;;0.00;0.00;;;;;;;9.37;94.14;98897.50;4883350;29;20055;-77
2023/12/11 04:16:13;;;;;;;0.00;0.00;;;;;;;9.24;94.81;98899.09;4911514;29;20058;-78
2023/12/11 04:18:42;;;;;;;0.00;0.00;;;;;;;9.15;95.07;98909.00;4893715;29;20037;-80
2023/12/11 04:21:07;;;;;;;0.00;0.00;;;;;;;9.14;95.47;98896.50;4889898;29;20115;-80
2023/12/11 04:23:33;;;;;;;0.00;0.00;;;;;;;9.19;96.74;98906.53;4897436;29;20526;-80
2023/12/11 04:25:59;;;;;;;0.00;0.00;;;;;;;9.09;95.91;98880.19;4891238;29;20043;-78
2023/12/11 04:28:28;;;;;;;0.00;0.00;;;;;;;9.18;96.52;98902.97;4904125;29;20060;-79
2023/12/11 04:30:56;;;;;;;0.00;0.00;;;;;;;9.41;95.93;98908.66;4894422;28;20036;-78
2023/12/11 04:33:21;;;;;;;0.00;0.00;;;;;;;9.39;95.42;98902.69;4907118;29;20028;-78
2023/12/11 04:35:47;;;;;;;0.00;0.00;;;;;;;9.46;95.04;98915.94;4904550;29;20032;-81
2023/12/11 04:38:13;;;;;;;0.00;0.00;;;;;;;9.54;94.74;98927.00;4901751;29;20029;-79
2023/12/11 04:40:40;;;;;;;0.00;0.00;;;;;;;9.61;95.12;98941.09;4907269;29;20043;-81
2023/12/11 04:43:06;;;;;;;0.00;0.00;;;;;;;9.59;95.94;98948.78;4909594;29;20023;-79
2023/12/11 04:45:33;;;;;;;0.00;0.00;;;;;;;9.52;96.90;98959.25;4888987;29;20394;-81
2023/12/11 04:47:59;;;;;;;0.00;0.00;;;;;;;9.40;98.82;98950.69;4891369;29;20071;-78
2023/12/11 04:50:24;;;;;;;0.10;0.10;;;;;;;9.36;100.00;98977.75;4891817;29;20025;-79
2023/12/11 04:52:57;;;;;;;0.00;0.00;;;;;;;9.20;100.00;98952.59;4894987;29;20043;-78
2023/12/11 04:55:25;;;;;;;0.00;0.00;;;;;;;9.23;100.00;98973.81;4897436;29;20440;-79
2023/12/11 04:57:50;;;;;;;0.00;0.00;;;;;;;9.29;100.00;98974.56;4913539;29;20028;-80
2023/12/11 05:00:17;;;;;;;0.00;0.00;;;;;;;9.25;100.00;98982.50;4883148;29;20036;-78
2023/12/11 05:02:43;;;;;;;0.00;0.00;;;;;;;9.03;100.00;98946.81;4876441;29;20032;-78
2023/12/11 05:05:09;;;;;;;0.00;0.00;;;;;;;9.17;100.00;98980.47;4908044;29;21950;-79
2023/12/11 05:07:37;;;;;;;0.00;0.00;;;;;;;8.94;99.72;98959.47;4884403;29;20024;-81
2023/12/11 05:10:03;;;;;;;0.00;0.00;;;;;;;8.88;100.00;98983.25;4902689;29;20126;-79
2023/12/11 05:12:29;;;;;;;0.00;0.00;;;;;;;8.59;100.00;98958.78;4871658;29;20020;-79
2023/12/11 05:15:02;;;;;;;0.00;0.00;;;;;;;8.43;100.00;98961.63;4913152;29;20423;-80
2023/12/11 05:17:27;;;;;;;0.00;0.00;;;;;;;8.49;100.00;98987.72;4900672;29;20490;-79
2023/12/11 05:20:02;;;;;;;0.00;0.00;;;;;;;8.21;100.00;98952.00;4914661;29;20028;-80
2023/12/11 05:22:27;;;;;;;0.00;0.00;;;;;;;8.15;100.00;98958.59;4903308;29;20026;-79
2023/12/11 05:24:53;;;;;;;0.00;0.00;;;;;;;8.25;100.00;98995.00;4886991;29;20390;-78
2023/12/11 05:27:18;;;;;;;0.00;0.00;;;;;;;8.27;100.00;98995.53;4871782;29;20029;-78
2023/12/11 05:29:44;;;;;;;0.00;0.00;;;;;;;8.22;100.00;98993.69;4926225;29;20028;-79
2023/12/11 05:32:14;;;;;;;0.00;0.00;;;;;;;8.13;100.00;98992.66;4908632;29;20503;-79
2023/12/11 05:34:41;;;;;;;0.00;0.00;;;;;;;8.20;100.00;98996.66;4891759;29;20044;-77
2023/12/11 05:37:09;;;;;;;0.00;0.00;;;;;;;8.08;100.00;98993.50;4894347;29;20032;-78
2023/12/11 05:39:34;;;;;;;0.00;0.00;;;;;;;7.97;100.00;98997.41;4887957;29;20036;-80
2023/12/11 05:42:00;;;;;;;0.00;0.00;;;;;;;7.96;100.00;98998.50;4893071;29;20024;-80
2023/12/11 05:44:28;;;;;;;0.00;0.00;;;;;;;7.92;100.00;98997.44;4889772;29;20032;-79
2023/12/11 05:46:53;;;;;;;0.00;0.00;;;;;;;7.90;100.00;99018.69;4894913;29;20032;-80
2023/12/11 05:49:20;;;;;;;0.00;0.00;;;;;;;7.78;100.00;99016.31;4898868;29;20032;-79
2023/12/11 05:51:57;;;;;;;;;;;;;;;;;;;;;
2023/12/11 05:54:23;;;;;;;0.00;0.00;;;;;;;7.68;100.00;99011.72;4891403;29;20029;-80
2023/12/11 05:56:48;;;;;;;0.00;0.00;;;;;;;7.84;100.00;99020.63;4904393;29;20046;-80
2023/12/11 05:59:14;;;;;;;0.00;0.00;;;;;;;7.76;100.00;98992.09;4896285;29;20024;-80
2023/12/11 06:01:39;;;;;;;0.00;0.00;;;;;;;7.82;100.00;99012.75;4916475;29;20102;-80
2023/12/11 06:04:05;;;;;;;0.00;0.00;;;;;;;8.00;100.00;99032.22;4893327;29;20025;-80
2023/12/11 06:06:30;;;;;;;0.00;0.00;;;;;;;8.01;100.00;99026.50;4898067;29;20028;-80
2023/12/11 06:08:56;;;;;;;0.00;0.00;;;;;;;8.16;100.00;99039.19;4908046;29;20089;-79
2023/12/11 06:11:23;;;;;;;0.00;0.00;;;;;;;8.20;100.00;99023.91;4892880;29;20036;-81
2023/12/11 06:14:02;;;;;;;0.00;0.00;;;;;;;8.48;100.00;99039.78;4915148;29;20027;-81
2023/12/11 06:16:29;;;;;;;0.00;0.00;;;;;;;8.69;100.00;99045.88;4906733;29;20395;-80
2023/12/11 06:18:58;;;;;;;0.00;0.00;;;;;;;8.93;100.00;99061.44;4901937;29;20025;-78
2023/12/11 06:21:24;;;;;;;0.00;0.00;;;;;;;9.03;100.00;99061.34;4884668;29;20126;-79
2023/12/11 06:23:49;;;;;;;0.00;0.00;;;;;;;9.05;100.00;99049.03;4900046;29;20032;-80
2023/12/11 06:26:39;;;;;;;0.00;0.00;;;;;;;8.99;99.74;99033.03;4909769;29;20033;-80
2023/12/11 06:29:04;;;;;;;0.00;0.00;;;;;;;8.98;100.00;99040.41;4895682;29;20140;-79
2023/12/11 06:31:33;;;;;;;0.00;0.00;;;;;;;9.01;99.68;99044.44;4902225;28;20056;-77
2023/12/11 06:33:58;;;;;;;0.00;0.00;;;;;;;8.89;99.97;99051.13;4899060;29;20067;-76
2023/12/11 06:36:25;;;;;;;0.00;0.00;;;;;;;8.85;100.00;99065.63;4904860;29;20103;-76
2023/12/11 06:38:51;;;;;;;0.10;0.10;;;;;;;8.93;100.00;99066.91;4909516;29;20082;-75
2023/12/11 06:41:19;;;;;;;0.00;0.00;;;;;;;8.97;100.00;99057.84;4905448;29;20873;-77
2023/12/11 06:43:52;;;;;;;0.00;0.00;;;;;;;8.94;100.00;99063.06;4907768;29;20028;-75
2023/12/11 06:46:18;;;;;;;0.00;0.00;;;;;;;8.72;100.00;99037.13;4908412;29;20024;-78
2023/12/11 06:48:44;;;;;;;0.00;0.00;;;;;;;8.69;100.00;99054.03;4912320;29;20021;-77
2023/12/11 06:51:17;;;;;;;0.08;0.08;;;;;;;8.55;100.00;99062.06;4904967;29;20079;-76
2023/12/11 06:53:43;;;;;;;0.00;0.00;;;;;;;8.61;100.00;99088.16;4911962;29;20391;-77
2023/12/11 06:56:25;;;;;;;;;;;;;;;;;;;;;
2023/12/11 06:58:54;;;;;;;0.00;0.00;;;;;;;8.54;100.00;99061.25;4915690;29;20033;-78
2023/12/11 07:01:20;;;;;;;0.00;0.00;;;;;;;8.67;100.00;99065.25;4911018;29;20088;-79
2023/12/11 07:03:48;;;;;;;0.00;0.00;;;;;;;8.88;100.00;99084.94;4919909;29;20044;-78
2023/12/11 07:06:15;;;;;;;0.10;0.10;;;;;;;9.04;100.00;99095.69;4905341;29;20029;-76
2023/12/11 07:09:21;;;;;;;0.00;0.00;;;;;;;9.18;99.69;99112.16;4909858;29;20044;-81
2023/12/11 07:11:46;;;;;;;0.00;0.00;;;;;;;9.19;99.62;99103.69;4914249;29;20527;-77
2023/12/11 07:14:24;;;;;;;0.10;0.10;;;;;;;9.04;99.24;99082.88;4923688;29;20039;-78
2023/12/11 07:19:39;;;;;;;0.00;0.00;;;;;;;8.83;98.77;99074.06;4896522;29;20031;-78
2023/12/11 07:22:04;;;;;;;0.00;0.00;;;;;;;8.99;98.70;99106.63;4899930;29;20028;-77
2023/12/11 07:30:58;;;;;;;0.00;0.00;;;;;;;9.03;98.80;99135.75;4882112;29;20123;-82
2023/12/11 07:34:26;;;;;;;;;;;;;;;;;;;;;
2023/12/11 07:40:16;;;;;;;0.00;0.00;;;;;;;9.04;98.44;99117.50;4884253;29;20043;-82
2023/12/11 07:42:46;;;;;;;0.00;0.00;;;;;;;9.11;98.09;99108.97;4846049;29;20083;-83
2023/12/11 07:45:11;;;;;;;0.00;0.00;;;;;;;9.23;98.08;99134.75;4873445;29;20056;-82
2023/12/11 07:48:00;;;;;;;0.00;0.00;;;;;;;9.24;97.13;99128.22;4891246;29;20043;-82
2023/12/11 07:50:28;;;;;;;0.10;0.10;;;;;;;9.32;97.32;99145.84;4920468;29;20044;-83
2023/12/11 07:52:53;;;;;;;0.00;0.00;;;;;;;9.35;97.31;99160.84;4918246;29;20037;-76
2023/12/11 07:55:19;;;;;;;0.00;0.00;;;;;;;9.38;97.18;99165.72;4910833;29;20091;-81
2023/12/11 07:57:47;;;;;;;0.00;0.00;;;;;;;9.32;97.25;99156.75;4910714;29;20031;-82
2023/12/11 08:00:17;;;;;;;0.10;0.10;;;;;;;8.97;97.28;99115.09;4907993;29;20796;-82
2023/12/11 08:02:45;;;;;;;0.00;0.00;;;;;;;9.24;97.91;99176.47;4900493;29;20047;-80
2023/12/11 08:05:27;;;;;;;0.05;0.05;;;;;;;9.37;98.67;99196.81;4882188;29;20028;-80
2023/12/11 08:07:52;;;;;;;0.00;0.00;;;;;;;9.31;98.15;99187.06;4905785;29;20075;-78
2023/12/11 08:10:45;;;;;;;0.00;0.00;;;;;;;9.21;98.70;99158.78;4902517;29;20119;-86
2023/12/11 08:13:12;;;;;;;0.00;0.00;;;;;;;9.37;97.51;99208.53;4897584;29;20036;-82
2023/12/11 08:15:37;;;;;;;0.10;0.10;;;;;;;9.25;97.36;99195.28;4888818;29;20698;-82
2023/12/11 08:18:03;;;;;;;0.00;0.00;;;;;;;9.13;97.37;99181.22;4916885;29;20121;-81
2023/12/11 08:20:31;;;;;;;0.00;0.00;;;;;;;9.12;97.42;99190.50;4889588;29;20048;-82
2023/12/11 08:22:56;;;;;;;0.00;0.00;;;;;;;9.02;97.62;99191.41;4886592;29;20123;-82
2023/12/11 08:25:24;;;;;;;0.00;0.00;;;;;;;9.06;98.10;99194.38;4920274;29;20075;-79
2023/12/11 08:27:50;;;;;;;0.00;0.00;;;;;;;9.20;98.17;99230.81;4914812;29;20024;-82
2023/12/11 08:30:15;;;;;;;0.00;0.00;;;;;;;9.09;97.84;99212.88;4892529;29;20031;-80
2023/12/11 08:32:40;;;;;;;0.00;0.00;;;;;;;9.18;98.24;99224.00;4898313;29;20061;-82
2023/12/11 08:35:07;;;;;;;0.00;0.00;;;;;;;9.18;98.16;99222.06;4904060;29;20036;-81
2023/12/11 08:37:33;;;;;;;0.00;0.00;;;;;;;9.20;97.59;99225.34;4891363;29;20046;-80
2023/12/11 08:39:58;;;;;;;0.00;0.00;;;;;;;9.20;97.23;99238.97;4904632;29;20032;-81
2023/12/11 08:42:24;;;;;;;0.00;0.00;;;;;;;9.26;97.10;99250.66;4910464;28;20040;-81
2023/12/11 08:44:49;;;;;;;0.00;0.00;;;;;;;9.19;96.55;99233.81;4899550;29;20039;-80
2023/12/11 08:47:15;;;;;;;0.00;0.00;;;;;;;9.34;97.09;99243.78;4892339;29;20041;-82
2023/12/11 08:49:42;;;;;;;0.00;0.00;;;;;;;9.50;95.78;99264.34;4899417;29;20080;-83
2023/12/11 08:52:18;;;;;;;;;;;;;;;;;;;;;
2023/12/11 08:54:50;;;;;;;0.00;0.00;;;;;;;9.09;95.38;99219.16;4905926;29;20038;-81
2023/12/11 08:57:16;;;;;;;0.00;0.00;;;;;;;9.16;95.68;99243.38;4896273;29;20088;-80
2023/12/11 08:59:41;;;;;;;0.00;0.00;;;;;;;9.00;95.99;99247.34;4896628;29;20033;-81
2023/12/11 09:09:26;;;;;;;0.00;0.00;;;;;;;9.08;96.33;99235.78;4789391;29;20404;-80
2023/12/11 09:11:52;;;;;;;0.00;0.00;;;;;;;9.32;95.18;99254.16;4800795;29;20042;-82
2023/12/11 09:14:17;;;;;;;0.00;0.00;;;;;;;9.42;94.67;99275.91;4806114;29;20039;-82
2023/12/11 09:16:43;;;;;;;0.00;0.00;;;;;;;9.40;94.41;99289.00;4829429;29;20044;-80
2023/12/11 09:19:11;;;;;;;0.00;0.00;;;;;;;9.58;95.03;99301.16;4910035;29;20076;-79
2023/12/11 09:21:40;;;;;;;0.00;0.00;;;;;;;9.81;93.90;99305.00;4882912;29;20060;-79
2023/12/11 09:24:06;;;;;;;0.00;0.00;;;;;;;9.66;92.74;99280.59;4909434;29;20042;-79
2023/12/11 09:26:34;;;;;;;0.00;0.00;;;;;;;9.87;92.84;99306.59;4918193;29;20028;-80
2023/12/11 09:28:59;;;;;;;0.00;0.00;;;;;;;9.78;92.19;99283.75;4890654;29;20057;-82
2023/12/11 09:31:25;;;;;;;0.00;0.00;;;;;;;10.01;92.28;99309.44;4901758;29;20036;-82
2023/12/11 09:33:59;;;;;;;0.00;0.00;;;;;;;9.98;91.56;99287.38;4878521;29;20105;-77
2023/12/11 09:36:52;;;;;;;;;;;;;;;10.39;90.54;99315.06;4916047;29;20031;-79
2023/12/11 09:39:18;;;;;;;0.00;0.00;;;;;;;10.48;89.53;99318.78;4904494;29;19930;-79
2023/12/11 09:41:44;;;;;;;0.00;0.00;;;;;;;10.62;89.40;99324.34;4892989;29;20033;-79
2023/12/11 09:44:10;;;;;;;0.00;0.00;;;;;;;10.68;88.22;99343.44;4904382;29;20042;-78
2023/12/11 09:47:07;;;;;;;0.00;0.00;;;;;;;10.48;88.50;99350.75;4924912;29;20048;-78
2023/12/11 09:49:32;;;;;;;0.00;0.00;;;;;;;10.52;88.99;99354.53;4879406;29;21508;-78
2023/12/11 09:51:59;;;;;;;0.00;0.00;;;;;;;10.71;87.72;99360.03;4895088;29;20068;-79
2023/12/11 09:54:25;;;;;;;0.00;0.00;;;;;;;10.87;86.74;99362.59;4905901;29;20383;-79
2023/12/11 09:56:53;;;;;;;0.00;0.00;;;;;;;10.97;85.95;99357.78;4907715;29;20111;-78
2023/12/11 09:59:20;;;;;;;0.00;0.00;;;;;;;11.00;85.40;99365.41;4905388;29;20036;-80
2023/12/11 10:01:53;;;;;;;0.00;0.00;;;;;;;10.91;85.99;99361.72;4907700;29;20039;-79
2023/12/11 10:04:19;;;;;;;0.00;0.00;;;;;;;10.73;85.65;99346.06;4920406;29;20025;-79
2023/12/11 10:06:51;;;;;;;0.00;0.00;;;;;;;10.65;85.73;99342.09;4892504;29;20052;-80
2023/12/11 10:09:39;;;;;;;0.00;0.00;;;;;;;10.68;86.50;99343.44;4903930;29;20020;-80
2023/12/11 10:12:06;;;;;;;0.00;0.00;;;;;;;10.80;85.24;99347.34;4923777;29;20102;-79
2023/12/11 10:14:31;;;;;;;0.00;0.00;;;;;;;10.82;84.61;99352.53;4904781;29;20020;-83
2023/12/11 10:16:57;;;;;;;0.00;0.00;;;;;;;10.73;84.20;99324.19;4917880;29;20175;-84
2023/12/11 10:19:33;;;;;;;0.00;0.00;;;;;;;11.04;83.92;99367.53;4915266;29;20024;-80
2023/12/11 10:22:02;;;;;;;0.00;0.00;;;;;;;11.30;83.83;99366.09;4882764;29;20024;-79
2023/12/11 10:24:30;;;;;;;0.00;0.00;;;;;;;11.54;83.42;99365.16;4907064;29;20102;-78
2023/12/11 10:26:57;;;;;;;0.00;0.00;;;;;;;11.61;81.93;99357.38;4892062;29;20088;-80
2023/12/11 10:29:39;;;;;;;0.00;0.00;;;;;;;12.08;80.24;99378.56;4870860;29;20031;-79
2023/12/11 10:32:05;;;;;;;0.00;0.00;;;;;;;12.02;78.88;99377.84;4916237;29;20048;-82
2023/12/11 10:34:53;;;;;;;;;;;;;;;;;;;;;
2023/12/11 10:37:31;;;;;;;0.00;0.00;;;;;;;12.15;79.27;99384.44;4911889;29;20026;-82
2023/12/11 10:39:57;;;;;;;0.00;0.00;;;;;;;12.16;78.03;99370.44;4911159;29;20071;-75
2023/12/11 10:42:24;;;;;;;0.00;0.00;;;;;;;12.45;77.70;99404.97;4914400;29;20071;-83
2023/12/11 10:44:54;;;;;;;0.00;0.00;;;;;;;12.58;76.15;99397.88;4899163;29;20036;-82
2023/12/11 10:47:20;;;;;;;0.00;0.00;;;;;;;12.80;76.91;99410.06;4931179;29;20035;-83
2023/12/11 10:49:55;;;;;;;0.00;0.00;;;;;;;13.09;73.94;99396.81;4917773;29;20032;-81
2023/12/11 10:52:21;;;;;;;0.00;0.00;;;;;;;13.09;72.61;99363.88;4889254;29;20033;-83
2023/12/11 10:54:49;;;;;;;0.00;0.00;;;;;;;13.93;73.40;99405.63;4913499;29;20152;-83
2023/12/11 10:57:21;;;;;;;0.10;0.10;;;;;;;13.98;70.40;99388.19;4905473;29;20032;-82
2023/12/11 10:59:51;;;;;;;0.00;0.00;;;;;;;13.66;70.16;99362.59;4903318;29;20024;-83
2023/12/11 11:02:38;;;;;;;0.00;0.00;;;;;;;13.51;71.15;99371.22;4910669;29;20117;-83
2023/12/11 11:05:04;;;;;;;0.00;0.00;;;;;;;13.28;71.39;99387.63;4917493;29;20096;-82
2023/12/11 11:07:37;;;;;;;0.10;0.10;;;;;;;13.34;72.16;99385.59;4909386;29;20025;-83
2023/12/11 11:10:52;;;;;;;0.00;0.00;;;;;;;13.40;72.70;99379.72;4916699;29;20454;-84
2023/12/11 11:13:42;;;;;;;0.05;0.05;;;;;;;13.52;70.91;99370.09;4861117;29;20053;-84
2023/12/11 11:16:10;;;;;;;0.10;0.10;;;;;;;13.44;72.13;99391.66;4868842;29;20624;-83
2023/12/11 11:19:08;;;;;;;0.00;0.00;;;;;;;14.88;69.18;99403.66;4942483;29;20024;-83
2023/12/11 11:21:43;;;;;;;0.00;0.00;;;;;;;14.75;65.96;99350.38;4908075;29;20025;-83
2023/12/11 11:24:36;;;;;;;0.00;0.00;;;;;;;14.43;66.47;99392.78;4916773;29;20530;-83
2023/12/11 11:27:42;;;;;;;0.00;0.00;;;;;;;13.62;68.72;99394.56;4920977;29;20381;-82
2023/12/11 11:30:07;;;;;;;;;;;;;;;13.17;71.10;99392.56;4921430;29;20028;-82
2023/12/11 11:33:12;;;;;;;0.00;0.00;;;;;;;13.35;73.79;99377.06;4910546;29;19926;-81
2023/12/11 11:35:50;;;;;;;0.10;0.10;;;;;;;17.40;62.94;99403.41;4842064;29;20045;-83
2023/12/11 11:38:21;;;;;;;0.00;0.00;;;;;;;20.84;48.58;99394.28;4855840;29;20292;-82
2023/12/11 11:40:51;;;;;;;0.00;0.00;;;;;;;21.26;47.49;99403.97;4910221;29;20048;-82
2023/12/11 11:43:26;;;;;;;0.00;0.00;;;;;;;21.79;45.30;99397.97;4893208;29;20033;-82
2023/12/11 11:46:06;;;;;;;0.00;0.00;;;;;;;21.70;42.86;99389.84;4902141;29;20047;-80
2023/12/11 11:48:58;;;;;;;0.00;0.00;;;;;;;23.40;39.99;99421.41;4895363;29;20040;-79
2023/12/11 11:51:30;;;;;;;0.00;0.00;;;;;;;23.96;38.11;99386.28;4907428;29;20048;-82
2023/12/11 11:53:59;;;;;;;0.00;0.00;;;;;;;23.41;38.35;99399.91;4890251;29;20032;-80
2023/12/11 11:56:25;;;;;;;0.00;0.00;;;;;;;23.01;40.06;99407.66;4892472;29;20028;-81
2023/12/11 11:58:50;;;;;;;0.00;0.00;;;;;;;22.72;39.91;99404.47;4926176;28;20392;-80
2023/12/11 12:01:16;;;;;;;0.00;0.00;;;;;;;20.92;42.74;99398.03;4882285;29;20040;-84
2023/12/11 12:03:42;;;;;;;0.00;0.00;;;;;;;22.51;41.81;99402.09;4894418;29;20037;-84
2023/12/11 12:06:09;;;;;;;0.00;0.00;;;;;;;23.59;39.30;99394.56;4910146;29;20072;-83
2023/12/11 12:08:43;;;;;;;0.00;0.00;;;;;;;25.03;37.14;99396.81;4907685;29;20024;-81
2023/12/11 12:11:11;;;;;;;0.00;0.00;;;;;;;25.40;35.31;99386.66;4895610;29;20075;-82
2023/12/11 12:13:37;;;;;;;0.00;0.00;;;;;;;24.35;35.57;99357.13;4898720;29;20024;-79
2023/12/11 12:16:03;;;;;;;0.00;0.00;;;;;;;25.02;36.04;99366.44;4882097;29;20845;-80